createdAt,value
2022-08-26T00:01:38.022Z,21.10
2022-08-26T00:06:42.615Z,20.80
2022-08-26T00:11:49.234Z,20.70
2022-08-26T00:16:53.640Z,20.50
2022-08-26T00:21:57.799Z,20.30
2022-08-26T00:27:00.678Z,20.10
2022-08-26T00:32:04.001Z,20.00
2022-08-26T00:37:09.442Z,19.90
2022-08-26T00:42:15.059Z,19.80
2022-08-26T00:47:31.049Z,19.70
2022-08-26T00:52:35.888Z,19.70
2022-08-26T00:57:41.654Z,19.70
2022-08-26T01:02:46.910Z,19.70
2022-08-26T01:07:50.504Z,19.70
2022-08-26T01:13:07.076Z,19.90
2022-08-26T01:18:10.497Z,19.80
2022-08-26T01:23:15.312Z,19.70
2022-08-26T01:28:24.253Z,19.70
2022-08-26T01:33:43.768Z,19.80
2022-08-26T01:38:46.722Z,19.70
2022-08-26T01:43:52.741Z,19.60
2022-08-26T01:48:58.658Z,19.50
2022-08-26T01:54:01.928Z,19.50
2022-08-26T01:59:08.404Z,19.40
2022-08-26T02:04:31.188Z,19.40
2022-08-26T02:09:34.047Z,19.40
2022-08-26T02:14:50.250Z,19.40
2022-08-26T02:19:53.881Z,19.40
2022-08-26T02:25:07.865Z,19.50
2022-08-26T02:30:17.112Z,19.50
2022-08-26T02:35:21.936Z,19.60
2022-08-26T02:40:29.235Z,19.80
2022-08-26T02:45:32.549Z,19.90
2022-08-26T02:50:35.734Z,20.00
2022-08-26T02:55:41.014Z,19.90
2022-08-26T03:00:52.830Z,20.00
2022-08-26T03:05:56.370Z,20.00
2022-08-26T03:10:59.239Z,19.90
2022-08-26T03:16:04.876Z,20.10
2022-08-26T03:21:10.882Z,20.00
2022-08-26T03:26:14.966Z,20.00
2022-08-26T03:31:18.536Z,20.00
2022-08-26T03:36:21.319Z,20.00
2022-08-26T03:41:23.954Z,19.90
2022-08-26T03:46:26.764Z,19.90
2022-08-26T03:51:29.737Z,19.90
2022-08-26T03:56:34.255Z,19.70
2022-08-26T04:01:37.657Z,19.80
2022-08-26T04:06:43.398Z,19.70
2022-08-26T04:11:50.601Z,19.60
2022-08-26T04:16:55.372Z,19.40
2022-08-26T04:21:58.100Z,19.30
2022-08-26T04:27:03.461Z,19.20
2022-08-26T04:32:05.998Z,19.30
2022-08-26T04:37:09.128Z,19.20
2022-08-26T04:42:12.800Z,19.20
2022-08-26T04:47:15.239Z,19.20
2022-08-26T04:52:17.965Z,19.30
2022-08-26T04:57:20.461Z,19.30
2022-08-26T05:02:22.968Z,19.40
2022-08-26T05:07:25.475Z,19.50
2022-08-26T05:12:31.243Z,19.50
2022-08-26T05:17:33.633Z,19.70
2022-08-26T05:22:36.064Z,19.60
2022-08-26T05:27:38.560Z,19.60
2022-08-26T05:32:41.795Z,19.60
2022-08-26T05:37:44.767Z,19.60
2022-08-26T05:42:47.660Z,19.60
2022-08-26T05:47:51.277Z,19.70
2022-08-26T05:52:53.840Z,19.50
2022-08-26T05:57:57.361Z,19.50
2022-08-26T06:02:59.858Z,19.80
2022-08-26T06:08:11.347Z,20.00
2022-08-26T06:13:14.383Z,20.10
2022-08-26T06:18:20.836Z,20.30
2022-08-26T06:23:42.009Z,20.60
2022-08-26T06:28:45.859Z,20.80
2022-08-26T06:33:48.612Z,21.00
2022-08-26T06:38:52.884Z,20.80
2022-08-26T06:43:56.667Z,21.20
2022-08-26T06:54:04.071Z,22.00
2022-08-26T06:59:08.454Z,22.10
2022-08-26T07:04:15.525Z,22.30
2022-08-26T07:09:18.445Z,22.60
2022-08-26T07:14:22.804Z,22.50
2022-08-26T07:19:31.185Z,22.60
2022-08-26T07:24:36.304Z,22.60
2022-08-26T07:29:40.694Z,23.20
2022-08-26T07:34:45.830Z,23.40
2022-08-26T07:39:48.502Z,23.80
2022-08-26T07:44:51.759Z,23.60
2022-08-26T07:49:55.953Z,24.00
2022-08-26T07:55:00.725Z,24.30
2022-08-26T08:00:07.637Z,24.40
2022-08-26T08:05:17.065Z,24.60
2022-08-26T08:10:25.221Z,24.60
2022-08-26T08:15:32.267Z,24.80
2022-08-26T08:20:35.928Z,24.90
2022-08-26T08:25:39.041Z,25.00
2022-08-26T08:30:42.587Z,25.00
2022-08-26T08:35:46.078Z,25.20
2022-08-26T08:40:48.907Z,25.30
2022-08-26T08:45:57.715Z,25.40
2022-08-26T08:51:14.318Z,25.50
2022-08-26T08:56:37.820Z,25.60
2022-08-26T09:01:59.870Z,25.70
2022-08-26T09:07:04.756Z,25.70
2022-08-26T09:12:14.752Z,25.70
2022-08-26T09:17:47.971Z,25.80
2022-08-26T09:22:51.436Z,25.90
2022-08-26T09:27:54.103Z,26.00
2022-08-26T09:33:10.462Z,26.00
2022-08-26T09:38:26.766Z,25.90
2022-08-26T09:43:31.344Z,26.00
2022-08-26T09:48:36.866Z,26.10
2022-08-26T09:53:55.121Z,26.10
2022-08-26T09:58:58.493Z,26.10
2022-08-26T10:04:22.769Z,26.20
2022-08-26T10:09:34.559Z,26.30
2022-08-26T10:14:52.008Z,26.40
2022-08-26T10:20:03.990Z,26.30
2022-08-26T10:25:13.095Z,26.10
2022-08-26T10:30:22.689Z,26.20
2022-08-26T10:35:27.078Z,26.20
2022-08-26T10:40:50.924Z,26.20
2022-08-26T10:46:08.527Z,26.30
2022-08-26T10:51:14.976Z,26.40
2022-08-26T10:56:39.832Z,26.40
2022-08-26T11:01:42.915Z,26.40
2022-08-26T11:06:46.227Z,26.60
2022-08-26T11:11:49.781Z,26.50
2022-08-26T11:16:54.387Z,26.40
2022-08-26T11:22:09.451Z,26.40
2022-08-26T11:27:35.190Z,26.40
2022-08-26T11:32:38.168Z,26.40
2022-08-26T11:37:41.432Z,26.30
2022-08-26T11:42:49.346Z,26.50
2022-08-26T11:47:51.910Z,26.60
2022-08-26T11:52:56.442Z,26.40
2022-08-26T11:58:02.031Z,26.40
2022-08-26T12:03:08.741Z,26.60
2022-08-26T12:08:16.518Z,26.90
2022-08-26T12:13:22.847Z,27.20
2022-08-26T12:18:31.792Z,27.20
2022-08-26T12:23:44.211Z,27.00
2022-08-26T12:29:00.503Z,26.90
2022-08-26T12:34:06.368Z,27.20
2022-08-26T12:39:30.793Z,27.00
2022-08-26T12:44:54.029Z,27.10
2022-08-26T12:50:28.447Z,26.80
2022-08-26T12:55:47.583Z,26.70
2022-08-26T13:06:40.473Z,27.30
2022-08-26T13:11:44.991Z,27.60
2022-08-26T13:16:47.418Z,27.70
2022-08-26T13:21:56.382Z,27.60
2022-08-26T13:26:59.202Z,27.50
2022-08-26T13:32:03.185Z,27.40
2022-08-26T13:37:06.401Z,27.30
2022-08-26T13:42:09.442Z,27.30
2022-08-26T13:47:11.952Z,27.30
2022-08-26T13:52:14.472Z,27.30
2022-08-26T13:57:16.840Z,27.30
2022-08-26T14:02:19.529Z,27.20
2022-08-26T14:07:22.629Z,27.20
2022-08-26T14:12:25.270Z,27.10
2022-08-26T14:17:27.810Z,27.30
2022-08-26T14:22:33.907Z,27.20
2022-08-26T14:27:36.325Z,27.10
2022-08-26T14:32:45.514Z,27.10
2022-08-26T14:37:48.694Z,27.00
2022-08-26T14:42:54.055Z,27.00
2022-08-26T14:47:57.003Z,27.10
2022-08-26T14:53:17.851Z,27.00
2022-08-26T14:58:20.291Z,27.00
2022-08-26T15:03:22.620Z,27.00
2022-08-26T15:08:25.510Z,26.90
2022-08-26T15:13:28.249Z,27.00
2022-08-26T15:18:31.755Z,27.00
2022-08-26T15:23:35.676Z,26.90
2022-08-26T15:28:38.969Z,27.00
2022-08-26T15:33:41.592Z,26.90
2022-08-26T15:38:44.120Z,26.80
2022-08-26T15:43:46.620Z,26.80
2022-08-26T15:48:49.147Z,26.90
2022-08-26T15:53:52.145Z,26.90
2022-08-26T15:58:56.133Z,26.90
2022-08-26T16:03:59.717Z,26.80
2022-08-26T16:09:02.189Z,26.80
2022-08-26T16:14:05.747Z,26.80
2022-08-26T16:19:08.521Z,26.70
2022-08-26T16:24:12.073Z,26.70
2022-08-26T16:29:16.697Z,26.70
2022-08-26T16:34:19.402Z,26.60
2022-08-26T16:39:21.829Z,26.60
2022-08-26T16:44:24.584Z,26.60
2022-08-26T16:49:32.320Z,26.50
2022-08-26T16:54:35.825Z,26.40
2022-08-26T16:59:39.578Z,26.40
2022-08-26T17:04:41.982Z,26.40
2022-08-26T17:09:49.709Z,26.30
2022-08-26T17:14:52.248Z,26.30
2022-08-26T17:19:54.691Z,26.10
2022-08-26T17:24:57.575Z,26.00
2022-08-26T17:30:00.071Z,25.80
2022-08-26T17:35:03.805Z,25.70
2022-08-26T17:40:09.866Z,25.30
2022-08-26T17:45:13.112Z,24.70
2022-08-26T17:50:18.461Z,24.20
2022-08-26T17:55:21.005Z,23.70
2022-08-26T18:00:27.442Z,23.80
2022-08-26T18:05:30.156Z,23.90
2022-08-26T18:10:32.992Z,23.70
2022-08-26T18:15:39.684Z,23.50
2022-08-26T18:20:44.623Z,23.20
2022-08-26T18:25:47.114Z,22.90
2022-08-26T18:30:49.507Z,22.60
2022-08-26T18:35:52.834Z,22.40
2022-08-26T18:40:55.384Z,22.20
2022-08-26T18:46:03.186Z,22.20
2022-08-26T18:51:06.932Z,22.50
2022-08-26T18:56:16.628Z,22.30
2022-08-26T19:01:25.410Z,22.10
2022-08-26T19:06:33.005Z,21.90
2022-08-26T19:11:37.554Z,21.80
2022-08-26T19:16:48.405Z,21.60
2022-08-26T19:21:51.846Z,21.40
2022-08-26T19:26:58.296Z,21.30
2022-08-26T19:32:02.101Z,21.20
2022-08-26T19:37:04.638Z,20.80
2022-08-26T19:42:07.088Z,20.70
2022-08-26T19:47:11.108Z,20.50
2022-08-26T19:52:13.948Z,20.40
2022-08-26T19:57:17.042Z,20.30
2022-08-26T20:02:20.675Z,20.10
2022-08-26T20:07:23.401Z,20.10
2022-08-26T20:12:27.879Z,20.10
2022-08-26T20:17:31.037Z,20.00
2022-08-26T20:22:33.944Z,19.90
2022-08-26T20:27:38.236Z,19.80
2022-08-26T20:32:41.875Z,19.80
2022-08-26T20:37:44.310Z,19.80
2022-08-26T20:42:46.786Z,19.70
2022-08-26T20:47:49.295Z,19.80
2022-08-26T20:52:53.638Z,19.80
2022-08-26T20:57:56.123Z,19.70
2022-08-26T21:03:00.545Z,19.70
2022-08-26T21:08:03.301Z,19.60
2022-08-26T21:13:06.044Z,19.50
2022-08-26T21:18:08.733Z,19.40
2022-08-26T21:23:11.455Z,19.30
2022-08-26T21:28:13.873Z,19.30
2022-08-26T21:33:16.350Z,19.10
2022-08-26T21:38:18.959Z,19.10
2022-08-26T21:43:33.660Z,19.20
2022-08-26T21:48:39.327Z,19.10
2022-08-26T21:53:42.192Z,19.00
2022-08-26T21:58:45.209Z,19.00
2022-08-26T22:03:49.222Z,18.80
2022-08-26T22:08:52.305Z,18.60
2022-08-26T22:13:56.944Z,18.60
2022-08-26T22:18:59.868Z,18.50
2022-08-26T22:24:03.241Z,18.50
2022-08-26T22:29:07.551Z,18.60
2022-08-26T22:34:13.205Z,18.50
2022-08-26T22:39:19.188Z,18.60
2022-08-26T22:44:22.289Z,18.60
2022-08-26T22:49:24.870Z,18.70
2022-08-26T22:54:28.173Z,18.70
2022-08-26T22:59:30.635Z,18.70
2022-08-26T23:04:33.829Z,18.70
2022-08-26T23:09:38.105Z,18.70
2022-08-26T23:14:41.485Z,18.50
2022-08-26T23:19:44.033Z,18.50
2022-08-26T23:29:49.242Z,18.30
2022-08-26T23:34:58.942Z,18.20
2022-08-26T23:40:14.130Z,18.10
2022-08-26T23:45:18.523Z,18.10
2022-08-26T23:50:44.912Z,18.00
2022-08-26T23:55:49.598Z,17.80
